Time;durP1;ratioP1;P1;durP2;ratioP2;P2;SDS_P1;SDS_P2;PMS_P1;PMS_P2;Temp;Humidity;BMP_temperature;BMP_pressure;BME280_temperature;BME280_humidity;BME280_pressure;Samples;Min_cycle;Max_cycle;Signal;HPM_P1;HPM_P2
2022/01/19 00:05:06;;;;;;;;;;;5.20;99.90;;;;;;5174544;27;19930;-85
2022/01/19 00:07:33;;;;;;;;;;;5.20;99.90;;;;;;5135030;27;19923;-83
2022/01/19 00:10:04;;;;;;;;;;;5.20;99.90;;;;;;5136857;27;19931;-83
2022/01/19 00:12:30;;;;;;;;;;;5.20;99.90;;;;;;5098406;28;19924;-83
2022/01/19 00:14:57;;;;;;;;;;;5.30;99.90;;;;;;5018435;28;19926;-81
2022/01/19 00:17:24;;;;;;;;;;;5.20;99.90;;;;;;4884300;28;19929;-83
2022/01/19 00:19:50;;;;;;;;;;;5.30;99.90;;;;;;4675685;30;19939;-85
2022/01/19 00:27:23;;;;;;;;;;;5.20;99.90;;;;;;5173797;27;19926;-83
2022/01/19 00:29:50;;;;;;;;;;;5.20;99.90;;;;;;5120341;27;19923;-84
2022/01/19 00:32:17;;;;;;;;;;;5.20;99.90;;;;;;5080212;28;19932;-85
2022/01/19 00:34:44;;;;;;;;;;;5.20;99.90;;;;;;5041190;28;19925;-83
2022/01/19 00:37:11;;;;;;;;;;;5.20;99.90;;;;;;4962427;28;19935;-83
2022/01/19 00:39:37;;;;;;;;;;;5.20;99.90;;;;;;4758577;29;19938;-87
2022/01/19 00:42:05;;;;;;;;;;;5.20;99.90;;;;;;4556183;30;19937;-83
2022/01/19 00:49:37;;;;;;;;;;;5.20;99.90;;;;;;5178659;27;19926;-82
2022/01/19 00:52:04;;;;;;;;;;;5.20;99.90;;;;;;5132941;27;19924;-83
2022/01/19 00:54:31;;;;;;;;;;;5.20;99.90;;;;;;5124494;27;19945;-82
2022/01/19 00:56:58;;;;;;;;;;;5.10;99.90;;;;;;5080791;28;19924;-83
2022/01/19 00:59:25;;;;;;;;;;;5.20;99.90;;;;;;4987374;28;19934;-82
2022/01/19 01:01:52;;;;;;;;;;;5.10;99.90;;;;;;4821552;29;19931;-81
2022/01/19 01:04:20;;;;;;;;;;;5.10;99.90;;;;;;4571332;30;19943;-81
2022/01/19 01:12:02;;;;;;;;;;;5.10;99.90;;;;;;5183492;27;19926;-85
2022/01/19 01:19:56;;;;;;;;;;;5.10;99.90;;;;;;5061471;28;19909;-80
2022/01/19 01:22:23;;;;;;;;;;;5.20;99.90;;;;;;4962519;28;19933;-82
2022/01/19 01:24:49;;;;;;;;;;;5.10;99.90;;;;;;4800453;29;19941;-84
2022/01/19 01:27:18;;;;;;;;;;;5.10;99.90;;;;;;4601045;30;19935;-82
2022/01/19 01:34:50;;;;;;;;;;;5.10;99.90;;;;;;5175389;27;19925;-83
2022/01/19 01:37:17;;;;;;;;;;;5.10;99.90;;;;;;5134444;27;19946;-85
2022/01/19 01:39:44;;;;;;;;;;;5.00;99.90;;;;;;5103291;28;19924;-84
2022/01/19 01:42:11;;;;;;;;;;;5.10;99.90;;;;;;5043049;28;19925;-87
2022/01/19 01:44:39;;;;;;;;;;;5.00;99.90;;;;;;4964104;28;19938;-81
2022/01/19 01:47:06;;;;;;;;;;;5.00;99.90;;;;;;4850975;29;20008;-83
2022/01/19 01:49:45;;;;;;;;;;;5.00;99.90;;;;;;4616781;30;19942;-85
2022/01/19 01:57:40;;;;;;;;;;;4.90;99.90;;;;;;5175945;27;19946;-84
2022/01/19 02:00:09;;;;;;;;;;;5.00;99.90;;;;;;5138710;27;19924;-85
2022/01/19 02:02:46;;;;;;;;;;;5.00;99.90;;;;;;5120200;27;19924;-85
2022/01/19 02:05:15;;;;;;;;;;;5.00;99.90;;;;;;5110322;28;19924;-87
2022/01/19 02:07:48;;;;;;;;;;;4.90;99.90;;;;;;5036782;28;19955;-82
2022/01/19 02:10:31;;;;;;;;;;;5.00;99.90;;;;;;4805610;29;20738;-84
2022/01/19 02:23:56;;;;;;;;;;;5.00;99.90;;;;;;5051734;28;19925;-82
2022/01/19 02:26:29;;;;;;;;;;;5.00;99.90;;;;;;4999527;28;19926;-82
2022/01/19 02:29:08;;;;;;;;;;;5.00;99.90;;;;;;4948847;28;19927;-82
2022/01/19 02:36:34;;;;;;;;;;;5.10;99.90;;;;;;4729438;29;19933;-80
2022/01/19 02:40:52;;;;;;;;;;;5.10;99.90;;;;;;5128080;27;19907;-81
2022/01/19 02:43:23;;;;;;;;;;;5.10;99.90;;;;;;5102992;28;19915;-81
2022/01/19 02:51:21;;;;;;;;;;;5.10;99.90;;;;;;4712370;30;19932;-83
2022/01/19 02:53:49;;;;;;;;;;;5.00;99.90;;;;;;4532987;30;19937;-81
2022/01/19 03:08:44;;;;;;;;;;;5.00;99.90;;;;;;5057149;28;19931;-80
2022/01/19 03:11:11;;;;;;;;;;;5.00;99.90;;;;;;4860674;28;19940;-83
2022/01/19 03:13:38;;;;;;;;;;;5.00;99.90;;;;;;4671993;29;19934;-81
2022/01/19 03:16:06;;;;;;;;;;;5.00;99.90;;;;;;4411730;31;19940;-83
2022/01/19 03:23:31;;;;;;;;;;;5.10;99.90;;;;;;5182517;27;19925;-82
2022/01/19 03:26:00;;;;;;;;;;;5.10;99.90;;;;;;5130915;27;19927;-81
2022/01/19 03:28:28;;;;;;;;;;;5.10;99.90;;;;;;5116888;27;19930;-84
2022/01/19 03:30:55;;;;;;;;;;;5.10;99.90;;;;;;5077063;28;19955;-81
2022/01/19 03:33:22;;;;;;;;;;;5.10;99.90;;;;;;4974736;28;19935;-82
2022/01/19 03:35:49;;;;;;;;;;;5.10;99.90;;;;;;4843751;29;19929;-85
2022/01/19 03:38:15;;;;;;;;;;;5.00;99.90;;;;;;4680340;30;19939;-83
2022/01/19 03:43:30;;;;;;;;;;;5.00;99.90;;;;;;5175298;27;19925;-85
2022/01/19 03:46:03;;;;;;;;;;;5.00;99.90;;;;;;5116487;27;19924;-84
2022/01/19 03:48:37;;;;;;;;;;;5.00;99.90;;;;;;5059640;28;19924;-88
2022/01/19 03:51:04;;;;;;;;;;;5.00;99.90;;;;;;5032825;28;19925;-83
2022/01/19 03:53:30;;;;;;;;;;;5.10;99.90;;;;;;4979881;28;19928;-82
2022/01/19 03:55:57;;;;;;;;;;;5.00;99.90;;;;;;4783520;29;19939;-82
2022/01/19 03:58:24;;;;;;;;;;;5.00;99.90;;;;;;4516022;30;19936;-86
2022/01/19 04:06:00;;;;;;;;;;;5.00;99.90;;;;;;5196316;27;19909;-81
2022/01/19 04:08:28;;;;;;;;;;;5.00;99.90;;;;;;5120634;27;19923;-80
2022/01/19 04:10:54;;;;;;;;;;;5.00;99.90;;;;;;5092747;28;19935;-82
2022/01/19 04:13:31;;;;;;;;;;;5.00;99.90;;;;;;5059065;28;19941;-86
2022/01/19 04:15:58;;;;;;;;;;;5.00;99.90;;;;;;4956899;28;19928;-82
2022/01/19 04:18:25;;;;;;;;;;;5.00;99.90;;;;;;4797958;29;19937;-81
2022/01/19 04:20:52;;;;;;;;;;;5.00;99.90;;;;;;4580194;30;19942;-84
2022/01/19 04:28:29;;;;;;;;;;;5.00;99.90;;;;;;5174247;27;19926;-83
2022/01/19 04:30:56;;;;;;;;;;;4.90;99.90;;;;;;5138012;27;19927;-85
2022/01/19 04:33:26;;;;;;;;;;;4.90;99.90;;;;;;5101545;27;19939;-84
2022/01/19 04:36:05;;;;;;;;;;;5.00;99.90;;;;;;5110243;28;19939;-84
2022/01/19 04:39:16;;;;;;;;;;;4.90;99.90;;;;;;4965361;28;19951;-89
2022/01/19 04:44:36;;;;;;;;;;;5.00;99.90;;;;;;4439195;31;19939;-88
2022/01/19 05:04:05;;;;;;;;;;;4.80;99.90;;;;;;4859182;29;19958;-84
2022/01/19 05:06:45;;;;;;;;;;;4.80;99.90;;;;;;4707407;30;19931;-81
2022/01/19 05:14:53;;;;;;;;;;;4.80;99.90;;;;;;5175839;27;19926;-85
2022/01/19 05:17:20;;;;;;;;;;;4.80;99.90;;;;;;5132405;27;19924;-84
2022/01/19 05:19:46;;;;;;;;;;;4.80;99.90;;;;;;5121507;27;19931;-86
2022/01/19 05:22:13;;;;;;;;;;;4.80;99.90;;;;;;5063306;28;19925;-85
2022/01/19 05:24:46;;;;;;;;;;;4.70;99.90;;;;;;4942531;28;20954;-82
2022/01/19 05:27:17;;;;;;;;;;;4.70;99.90;;;;;;4846626;29;19918;-86
2022/01/19 05:29:44;;;;;;;;;;;4.70;99.90;;;;;;4649723;30;19925;-83
2022/01/19 05:37:18;;;;;;;;;;;4.60;99.90;;;;;;5175611;27;19926;-85
2022/01/19 05:40:14;;;;;;;;;;;4.70;99.90;;;;;;5114115;27;19939;-82
2022/01/19 05:42:48;;;;;;;;;;;4.70;99.90;;;;;;5081421;28;19924;-82
2022/01/19 05:45:15;;;;;;;;;;;4.70;99.90;;;;;;5056642;28;19931;-83
2022/01/19 05:47:42;;;;;;;;;;;4.70;99.90;;;;;;5023996;28;19941;-82
2022/01/19 05:50:09;;;;;;;;;;;4.70;99.90;;;;;;4855071;28;19953;-82
2022/01/19 05:56:31;;;;;;;;;;;4.60;99.90;;;;;;5176834;27;19926;-83
2022/01/19 05:59:04;;;;;;;;;;;4.60;99.90;;;;;;5115847;27;19930;-83
2022/01/19 06:01:31;;;;;;;;;;;4.60;99.90;;;;;;5101775;28;19924;-82
2022/01/19 06:03:57;;;;;;;;;;;4.60;99.90;;;;;;5065920;28;19925;-83
2022/01/19 06:06:52;;;;;;;;;;;4.60;99.90;;;;;;4989679;28;19926;-84
2022/01/19 06:09:50;;;;;;;;;;;4.50;99.90;;;;;;4745924;29;19939;-84
2022/01/19 06:15:13;;;;;;;;;;;4.40;99.90;;;;;;5174476;27;19925;-83
2022/01/19 06:17:40;;;;;;;;;;;4.40;99.90;;;;;;5136651;27;19949;-84
2022/01/19 06:20:12;;;;;;;;;;;4.40;99.90;;;;;;5085677;27;19935;-86
2022/01/19 06:22:39;;;;;;;;;;;4.50;99.90;;;;;;5078189;28;19925;-84
2022/01/19 06:25:07;;;;;;;;;;;4.50;99.90;;;;;;4984209;28;19936;-83
2022/01/19 06:27:34;;;;;;;;;;;4.50;99.90;;;;;;4831994;29;19929;-85
2022/01/19 06:30:01;;;;;;;;;;;4.50;99.90;;;;;;4582284;30;19936;-86
2022/01/19 06:37:33;;;;;;;;;;;4.40;99.90;;;;;;5165011;27;19926;-85
2022/01/19 06:40:25;;;;;;;;;;;4.40;99.90;;;;;;5089665;27;19934;-84
2022/01/19 06:42:53;;;;;;;;;;;4.40;99.90;;;;;;5053271;28;19932;-85
2022/01/19 06:45:20;;;;;;;;;;;4.40;99.90;;;;;;5013597;28;19930;-84
2022/01/19 06:47:47;;;;;;;;;;;4.40;99.90;;;;;;4866721;28;19938;-83
2022/01/19 06:50:15;;;;;;;;;;;4.30;99.90;;;;;;4756293;29;19932;-83
2022/01/19 06:52:44;;;;;;;;;;;4.40;99.90;;;;;;4545712;30;19942;-82
2022/01/19 07:00:20;;;;;;;;;;;4.30;99.90;;;;;;5177161;27;19926;-83
2022/01/19 07:03:01;;;;;;;;;;;4.20;99.90;;;;;;5076811;28;19924;-83
2022/01/19 07:05:48;;;;;;;;;;;4.20;99.90;;;;;;5051027;28;19925;-85
2022/01/19 07:08:33;;;;;;;;;;;4.20;99.90;;;;;;5017633;28;19926;-81
2022/01/19 07:11:00;;;;;;;;;;;4.20;99.90;;;;;;4929509;28;19929;-81
2022/01/19 07:13:27;;;;;;;;;;;4.20;99.90;;;;;;4802571;29;19930;-81
2022/01/19 07:15:55;;;;;;;;;;;4.20;99.90;;;;;;4538282;30;19937;-83
2022/01/19 07:23:29;;;;;;;;;;;4.20;99.90;;;;;;5175007;27;19949;-82
2022/01/19 07:25:56;;;;;;;;;;;4.20;99.90;;;;;;5136877;27;19923;-85
2022/01/19 07:28:23;;;;;;;;;;;4.20;99.90;;;;;;5116057;27;19958;-86
2022/01/19 07:30:49;;;;;;;;;;;4.30;99.90;;;;;;5100655;27;19924;-81
2022/01/19 07:33:16;;;;;;;;;;;4.30;99.90;;;;;;5052497;28;19934;-83
2022/01/19 07:35:50;;;;;;;;;;;4.30;99.90;;;;;;4911576;29;19932;-85
2022/01/19 07:38:18;;;;;;;;;;;4.30;99.90;;;;;;4678961;29;19940;-83
2022/01/19 07:45:46;;;;;;;;;;;4.30;99.90;;;;;;5176788;27;19942;-85
2022/01/19 07:48:30;;;;;;;;;;;4.30;99.90;;;;;;5106418;27;19931;-83
2022/01/19 07:51:07;;;;;;;;;;;4.30;99.90;;;;;;5091738;28;19925;-85
2022/01/19 07:53:42;;;;;;;;;;;4.30;99.90;;;;;;5032268;28;19926;-83
2022/01/19 07:56:21;;;;;;;;;;;4.30;99.90;;;;;;4946410;28;19934;-87
2022/01/19 07:59:08;;;;;;;;;;;4.40;99.90;;;;;;4670728;29;19938;-84
2022/01/19 08:13:03;;;;;;;;;;;6.10;99.90;;;;;;5093983;28;19986;-82
2022/01/19 08:15:31;;;;;;;;;;;6.50;99.90;;;;;;5082219;28;19924;-81
2022/01/19 08:18:03;;;;;;;;;;;6.70;99.90;;;;;;5068281;28;19935;-81
2022/01/19 08:20:30;;;;;;;;;;;6.80;99.90;;;;;;5013406;28;19915;-81
2022/01/19 08:22:57;;;;;;;;;;;6.90;99.90;;;;;;4842524;29;19929;-86
2022/01/19 08:25:32;;;;;;;;;;;7.40;99.90;;;;;;4661721;29;19943;-81
2022/01/19 08:30:38;;;;;;;;;;;8.30;99.90;;;;;;5174662;27;19926;-83
2022/01/19 08:33:05;;;;;;;;;;;7.80;99.90;;;;;;5118343;27;19949;-84
2022/01/19 08:35:44;;;;;;;;;;;8.00;99.90;;;;;;5086156;28;19936;-84
2022/01/19 08:38:29;;;;;;;;;;;8.40;99.90;;;;;;5015632;28;19926;-83
2022/01/19 08:41:10;;;;;;;;;;;7.70;99.90;;;;;;4813072;29;19937;-85
2022/01/19 08:43:38;;;;;;;;;;;7.90;99.90;;;;;;4629090;30;19934;-84
2022/01/19 08:46:07;;;;;;;;;;;8.10;99.90;;;;;;4460982;31;19945;-83
2022/01/19 08:53:24;;;;;;;;;;;7.60;99.90;;;;;;5175250;27;19926;-85
2022/01/19 08:56:05;;;;;;;;;;;7.90;99.90;;;;;;5128143;27;19931;-83
2022/01/19 08:58:31;;;;;;;;;;;8.10;99.90;;;;;;5116571;27;19923;-84
2022/01/19 09:00:58;;;;;;;;;;;7.90;99.90;;;;;;5087972;28;19933;-84
2022/01/19 09:03:25;;;;;;;;;;;7.30;99.90;;;;;;4928896;28;19929;-83
2022/01/19 09:05:52;;;;;;;;;;;7.50;99.90;;;;;;4713049;29;19932;-85
2022/01/19 09:08:19;;;;;;;;;;;7.80;99.90;;;;;;4507236;30;19937;-85
2022/01/19 09:15:52;;;;;;;;;;;9.10;99.90;;;;;;5186965;27;19925;-81
2022/01/19 09:18:19;;;;;;;;;;;9.10;99.90;;;;;;5146116;27;19923;-85
2022/01/19 09:20:46;;;;;;;;;;;8.30;99.90;;;;;;5140341;27;19945;-83
2022/01/19 09:23:13;;;;;;;;;;;8.20;99.90;;;;;;5102750;28;19936;-82
2022/01/19 09:25:40;;;;;;;;;;;8.80;99.90;;;;;;5017574;28;19931;-85
2022/01/19 09:28:08;;;;;;;;;;;9.80;99.90;;;;;;4784121;29;19938;-83
2022/01/19 09:30:35;;;;;;;;;;;10.60;99.90;;;;;;4484861;30;19949;-82
2022/01/19 09:38:08;;;;;;;;;;;10.80;99.90;;;;;;5177740;27;19925;-85
2022/01/19 09:40:35;;;;;;;;;;;12.00;99.90;;;;;;5156432;27;19918;-80
2022/01/19 09:43:03;;;;;;;;;;;11.70;99.90;;;;;;5140007;27;19931;-84
2022/01/19 09:45:33;;;;;;;;;;;10.70;99.90;;;;;;5094673;28;19931;-82
2022/01/19 09:48:00;;;;;;;;;;;8.80;99.90;;;;;;4954885;28;19931;-83
2022/01/19 09:50:27;;;;;;;;;;;9.20;99.90;;;;;;4770874;29;19932;-85
2022/01/19 09:52:54;;;;;;;;;;;8.70;99.90;;;;;;4482409;31;19949;-85
2022/01/19 10:00:26;;;;;;;;;;;8.00;99.90;;;;;;5182751;27;19925;-83
2022/01/19 10:03:13;;;;;;;;;;;8.10;99.90;;;;;;5103664;28;19931;-86
2022/01/19 10:05:52;;;;;;;;;;;7.40;99.90;;;;;;5072595;28;19925;-83
2022/01/19 10:08:25;;;;;;;;;;;8.00;99.90;;;;;;5035379;28;19925;-85
2022/01/19 10:11:03;;;;;;;;;;;8.10;99.90;;;;;;4918743;28;19927;-81
2022/01/19 10:21:56;;;;;;;;;;;7.00;99.90;;;;;;5163854;27;19926;-85
2022/01/19 10:24:32;;;;;;;;;;;7.20;99.90;;;;;;5094629;28;19938;-83
2022/01/19 10:27:14;;;;;;;;;;;6.90;99.90;;;;;;5053399;28;19925;-85
2022/01/19 10:29:41;;;;;;;;;;;7.00;99.90;;;;;;5038737;28;19932;-85
2022/01/19 10:32:08;;;;;;;;;;;7.00;99.90;;;;;;4962098;28;19954;-84
2022/01/19 10:34:34;;;;;;;;;;;7.30;99.90;;;;;;4764116;29;19932;-84
2022/01/19 10:37:05;;;;;;;;;;;6.80;99.90;;;;;;4469393;31;19949;-89
2022/01/19 10:44:45;;;;;;;;;;;5.60;99.90;;;;;;5181139;27;19925;-81
2022/01/19 10:47:12;;;;;;;;;;;5.20;99.90;;;;;;5141642;27;19924;-85
2022/01/19 10:49:46;;;;;;;;;;;5.10;99.90;;;;;;5132979;27;19923;-87
2022/01/19 10:52:24;;;;;;;;;;;4.90;99.90;;;;;;5069291;28;19925;-85
2022/01/19 10:54:51;;;;;;;;;;;4.80;99.90;;;;;;4917858;28;19940;-87
2022/01/19 10:57:19;;;;;;;;;;;4.80;99.90;;;;;;4695079;29;19934;-83
2022/01/19 10:59:47;;;;;;;;;;;4.70;99.90;;;;;;4294111;31;19943;-87
2022/01/19 11:06:42;;;;;;;;;;;4.70;99.90;;;;;;5197182;27;19910;-79
2022/01/19 11:09:14;;;;;;;;;;;4.70;99.90;;;;;;5136099;27;19912;-85
2022/01/19 11:11:40;;;;;;;;;;;4.80;99.90;;;;;;5099455;28;19924;-83
2022/01/19 11:14:08;;;;;;;;;;;4.60;99.90;;;;;;5073314;28;19931;-83
2022/01/19 11:16:34;;;;;;;;;;;4.70;99.90;;;;;;4996759;28;19931;-82
2022/01/19 11:19:01;;;;;;;;;;;4.60;99.90;;;;;;4809660;29;19931;-83
2022/01/19 11:21:30;;;;;;;;;;;4.40;99.90;;;;;;4539247;30;19949;-85
2022/01/19 11:26:40;;;;;;;;;;;4.20;99.90;;;;;;5168920;27;19926;-86
2022/01/19 11:29:18;;;;;;;;;;;4.20;99.90;;;;;;5104558;28;19931;-86
2022/01/19 11:31:46;;;;;;;;;;;4.00;99.90;;;;;;5050607;28;19925;-82
2022/01/19 11:34:14;;;;;;;;;;;4.00;99.90;;;;;;4999346;28;19925;-85
2022/01/19 11:36:42;;;;;;;;;;;4.30;99.90;;;;;;4936321;28;19934;-84
2022/01/19 11:39:10;;;;;;;;;;;4.50;99.90;;;;;;4811786;29;19931;-86
2022/01/19 11:48:30;;;;;;;;;;;3.70;99.90;;;;;;5071620;27;19947;-85
2022/01/19 11:51:23;;;;;;;;;;;3.50;99.90;;;;;;5100052;28;19931;-83
2022/01/19 11:54:00;;;;;;;;;;;3.20;99.90;;;;;;5039856;28;19924;-85
2022/01/19 11:56:27;;;;;;;;;;;3.20;99.90;;;;;;5005195;28;19927;-82
2022/01/19 11:59:02;;;;;;;;;;;3.20;99.90;;;;;;4827908;29;19930;-85
2022/01/19 12:01:41;;;;;;;;;;;3.20;99.90;;;;;;4598443;30;20019;-84
2022/01/19 12:07:26;;;;;;;;;;;3.10;99.90;;;;;;5177930;27;19926;-83
2022/01/19 12:09:57;;;;;;;;;;;3.10;99.90;;;;;;5115631;27;19924;-82
2022/01/19 12:12:28;;;;;;;;;;;3.00;99.90;;;;;;5099085;28;19940;-83
2022/01/19 12:14:55;;;;;;;;;;;2.80;99.90;;;;;;5079720;28;19931;-86
2022/01/19 12:17:26;;;;;;;;;;;2.90;99.90;;;;;;5020063;28;19926;-84
2022/01/19 12:19:53;;;;;;;;;;;3.00;99.90;;;;;;4905003;28;19933;-86
2022/01/19 12:22:23;;;;;;;;;;;3.10;99.90;;;;;;4753284;29;19932;-84
2022/01/19 12:24:56;;;;;;;;;;;3.10;99.90;;;;;;4444376;31;19939;-84
2022/01/19 12:32:33;;;;;;;;;;;3.00;99.90;;;;;;5179129;27;19910;-81
2022/01/19 12:35:08;;;;;;;;;;;2.90;99.90;;;;;;5128527;27;19934;-83
2022/01/19 12:37:37;;;;;;;;;;;2.90;99.90;;;;;;5072826;28;19940;-87
2022/01/19 12:40:05;;;;;;;;;;;3.00;99.90;;;;;;5066929;28;19925;-86
2022/01/19 12:42:41;;;;;;;;;;;3.00;99.90;;;;;;5041421;28;19925;-86
2022/01/19 12:45:15;;;;;;;;;;;3.10;99.90;;;;;;4820391;29;19948;-83
2022/01/19 12:47:47;;;;;;;;;;;2.90;99.90;;;;;;4644144;29;19941;-87
2022/01/19 12:55:40;;;;;;;;;;;2.80;99.90;;;;;;5178574;27;19926;-85
2022/01/19 12:58:11;;;;;;;;;;;2.80;99.90;;;;;;5139391;27;19923;-84
2022/01/19 13:00:38;;;;;;;;;;;2.90;99.90;;;;;;5099636;28;19924;-84
2022/01/19 13:03:13;;;;;;;;;;;3.00;99.90;;;;;;5043840;28;19925;-83
2022/01/19 13:05:45;;;;;;;;;;;3.00;99.90;;;;;;4933102;28;19944;-84
2022/01/19 13:08:13;;;;;;;;;;;3.10;99.90;;;;;;4631717;30;19935;-82
2022/01/19 13:10:46;;;;;;;;;;;3.00;99.90;;;;;;4394558;32;19940;-86
2022/01/19 13:18:09;;;;;;;;;;;3.00;99.90;;;;;;5190487;27;19926;-83
2022/01/19 13:20:36;;;;;;;;;;;3.00;99.90;;;;;;5138375;27;19929;-82
2022/01/19 13:23:04;;;;;;;;;;;2.90;99.90;;;;;;5109882;28;19931;-82
2022/01/19 13:25:31;;;;;;;;;;;2.90;99.90;;;;;;5087095;28;19932;-86
2022/01/19 13:28:00;;;;;;;;;;;3.00;99.90;;;;;;5007376;28;19926;-87
2022/01/19 13:30:28;;;;;;;;;;;3.00;99.90;;;;;;4812597;29;19931;-85
2022/01/19 13:32:54;;;;;;;;;;;3.00;99.90;;;;;;4461282;31;19937;-83
2022/01/19 13:39:38;;;;;;;;;;;3.00;99.90;;;;;;5177792;27;19926;-86
2022/01/19 13:42:05;;;;;;;;;;;3.00;99.90;;;;;;5127478;27;19930;-87
2022/01/19 13:44:38;;;;;;;;;;;3.00;99.90;;;;;;5112680;28;19931;-85
2022/01/19 13:47:11;;;;;;;;;;;2.90;99.90;;;;;;5058682;28;19932;-84
2022/01/19 13:49:39;;;;;;;;;;;3.00;99.90;;;;;;4989904;28;19927;-85
2022/01/19 13:52:06;;;;;;;;;;;3.00;99.90;;;;;;4764438;29;19932;-82
2022/01/19 13:54:36;;;;;;;;;;;2.90;99.90;;;;;;4506898;30;19944;-80
2022/01/19 13:59:43;;;;;;;;;;;2.90;99.90;;;;;;5191475;27;19925;-82
2022/01/19 14:02:16;;;;;;;;;;;3.00;99.90;;;;;;5147806;27;19931;-82
2022/01/19 14:04:50;;;;;;;;;;;3.00;99.90;;;;;;5080220;27;19931;-84
2022/01/19 14:07:17;;;;;;;;;;;3.00;99.90;;;;;;5082376;28;19932;-84
2022/01/19 14:09:46;;;;;;;;;;;3.10;99.90;;;;;;4969629;28;19935;-87
2022/01/19 14:12:16;;;;;;;;;;;3.10;99.90;;;;;;4765029;29;19932;-82
2022/01/19 14:14:51;;;;;;;;;;;3.10;99.90;;;;;;4413494;31;19940;-85
2022/01/19 14:22:26;;;;;;;;;;;3.10;99.90;;;;;;5158345;27;19926;-85
2022/01/19 14:24:55;;;;;;;;;;;3.10;99.90;;;;;;5094482;28;19924;-86
2022/01/19 14:27:41;;;;;;;;;;;3.20;99.90;;;;;;5089334;28;19924;-82
2022/01/19 14:30:10;;;;;;;;;;;3.10;99.90;;;;;;4993408;28;19926;-86
2022/01/19 14:32:39;;;;;;;;;;;3.20;99.90;;;;;;4868129;29;19929;-82
2022/01/19 14:35:21;;;;;;;;;;;3.20;99.90;;;;;;4618465;30;19935;-83
2022/01/19 14:42:06;;;;;;;;;;;3.30;99.90;;;;;;5161735;27;19930;-85
2022/01/19 14:44:40;;;;;;;;;;;3.30;99.90;;;;;;5101578;27;19923;-82
2022/01/19 14:47:17;;;;;;;;;;;3.30;99.90;;;;;;5104181;27;19930;-83
2022/01/19 14:49:43;;;;;;;;;;;3.40;99.90;;;;;;5074596;28;19925;-83
2022/01/19 14:52:12;;;;;;;;;;;3.40;99.90;;;;;;4978915;28;19927;-83
2022/01/19 14:54:49;;;;;;;;;;;3.40;99.90;;;;;;4766947;29;19954;-84
2022/01/19 14:57:18;;;;;;;;;;;3.40;99.90;;;;;;4609441;30;19935;-85
2022/01/19 15:04:46;;;;;;;;;;;3.50;99.90;;;;;;5174552;27;19925;-82
2022/01/19 15:07:13;;;;;;;;;;;3.50;99.90;;;;;;5137456;27;19923;-87
2022/01/19 15:09:43;;;;;;;;;;;3.50;99.90;;;;;;5137401;27;19923;-87
2022/01/19 15:12:10;;;;;;;;;;;3.50;99.90;;;;;;5089804;28;19940;-82
2022/01/19 15:14:39;;;;;;;;;;;3.50;99.90;;;;;;5023115;28;19927;-86
2022/01/19 15:17:10;;;;;;;;;;;3.50;99.90;;;;;;4900889;28;19937;-88
2022/01/19 15:20:19;;;;;;;;;;;3.50;99.90;;;;;;4729598;29;19939;-83
2022/01/19 15:25:34;;;;;;;;;;;3.70;99.90;;;;;;5191245;27;19925;-82
2022/01/19 15:28:02;;;;;;;;;;;3.70;99.90;;;;;;5148921;27;19923;-87
2022/01/19 15:30:33;;;;;;;;;;;3.60;99.90;;;;;;5138455;27;19930;-83
2022/01/19 15:33:00;;;;;;;;;;;3.70;99.90;;;;;;5072241;28;19928;-85
2022/01/19 15:35:29;;;;;;;;;;;3.70;99.90;;;;;;5040999;28;19942;-83
2022/01/19 15:37:57;;;;;;;;;;;3.70;99.90;;;;;;4923770;28;19940;-82
2022/01/19 15:40:26;;;;;;;;;;;3.80;99.90;;;;;;4712822;29;19934;-83
2022/01/19 15:47:59;;;;;;;;;;;3.70;99.90;;;;;;5177445;27;19927;-86
2022/01/19 15:50:26;;;;;;;;;;;3.70;99.90;;;;;;5139650;27;19923;-87
2022/01/19 15:52:53;;;;;;;;;;;3.70;99.90;;;;;;5114321;28;19924;-84
2022/01/19 15:55:20;;;;;;;;;;;3.80;99.90;;;;;;5093312;28;19927;-86
2022/01/19 15:57:47;;;;;;;;;;;3.80;99.90;;;;;;5046770;28;19929;-85
2022/01/19 16:00:14;;;;;;;;;;;3.80;99.90;;;;;;4888988;28;19929;-87
2022/01/19 16:02:41;;;;;;;;;;;3.80;99.90;;;;;;4697150;29;19933;-82
2022/01/19 16:09:42;;;;;;;;;;;3.80;99.90;;;;;;5176398;27;19926;-86
2022/01/19 16:12:09;;;;;;;;;;;3.80;99.90;;;;;;5127100;27;19923;-84
2022/01/19 16:14:36;;;;;;;;;;;3.90;99.90;;;;;;5114015;28;19923;-84
2022/01/19 16:17:03;;;;;;;;;;;3.90;99.90;;;;;;5079796;28;19924;-85
2022/01/19 16:19:30;;;;;;;;;;;3.90;99.90;;;;;;4955566;28;19931;-84
2022/01/19 16:21:56;;;;;;;;;;;3.90;99.90;;;;;;4770808;29;19931;-84
2022/01/19 16:31:43;;;;;;;;;;;3.90;99.90;;;;;;5186766;27;19926;-86
2022/01/19 16:34:11;;;;;;;;;;;3.90;99.90;;;;;;5115291;27;19923;-83
2022/01/19 16:36:38;;;;;;;;;;;3.90;99.90;;;;;;5111769;28;19936;-85
2022/01/19 16:39:08;;;;;;;;;;;3.90;99.90;;;;;;5087650;28;19978;-84
2022/01/19 16:41:37;;;;;;;;;;;3.90;99.90;;;;;;5012750;28;19925;-85
2022/01/19 16:44:04;;;;;;;;;;;3.90;99.90;;;;;;4898287;28;19933;-85
2022/01/19 16:46:31;;;;;;;;;;;3.90;99.90;;;;;;4608336;30;19923;-83
2022/01/19 16:54:04;;;;;;;;;;;4.00;99.90;;;;;;5177110;27;19926;-88
2022/01/19 16:56:31;;;;;;;;;;;4.00;99.90;;;;;;5138055;27;19938;-86
2022/01/19 16:58:59;;;;;;;;;;;4.00;99.90;;;;;;5133507;27;19932;-84
2022/01/19 17:01:26;;;;;;;;;;;4.00;99.90;;;;;;5115319;28;19924;-85
2022/01/19 17:03:53;;;;;;;;;;;4.00;99.90;;;;;;5033252;28;19937;-87
2022/01/19 17:06:19;;;;;;;;;;;4.00;99.90;;;;;;4978598;28;19927;-85
2022/01/19 17:08:46;;;;;;;;;;;4.10;99.90;;;;;;4691064;29;19933;-86
2022/01/19 17:16:19;;;;;;;;;;;4.10;99.90;;;;;;5176733;27;19942;-87
2022/01/19 17:18:46;;;;;;;;;;;4.10;99.90;;;;;;5119350;27;19923;-86
2022/01/19 17:21:14;;;;;;;;;;;4.10;99.90;;;;;;5111947;28;19923;-89
2022/01/19 17:23:44;;;;;;;;;;;4.10;99.90;;;;;;5080760;28;19925;-86
2022/01/19 17:26:11;;;;;;;;;;;4.10;99.90;;;;;;4959354;28;19928;-90
2022/01/19 17:28:38;;;;;;;;;;;4.20;99.90;;;;;;4897223;29;19937;-83
2022/01/19 17:31:04;;;;;;;;;;;4.10;99.90;;;;;;4712939;29;19939;-85
2022/01/19 17:37:58;;;;;;;;;;;4.10;99.90;;;;;;5175270;27;19926;-83
2022/01/19 17:40:25;;;;;;;;;;;4.10;99.90;;;;;;5139638;27;19930;-86
2022/01/19 17:42:53;;;;;;;;;;;4.10;99.90;;;;;;5118171;27;19934;-83
2022/01/19 17:45:27;;;;;;;;;;;4.10;99.90;;;;;;5099677;28;19931;-84
2022/01/19 17:48:01;;;;;;;;;;;4.10;99.90;;;;;;4983733;28;19928;-84
2022/01/19 17:50:52;;;;;;;;;;;4.10;99.90;;;;;;4784574;29;19936;-84
2022/01/19 17:53:19;;;;;;;;;;;4.10;99.90;;;;;;4394456;31;19956;-89
2022/01/19 18:00:29;;;;;;;;;;;4.10;99.90;;;;;;5180275;27;19926;-87
2022/01/19 18:02:56;;;;;;;;;;;4.10;99.90;;;;;;5109507;28;19930;-86
2022/01/19 18:05:22;;;;;;;;;;;4.10;99.90;;;;;;5090682;28;19924;-86
2022/01/19 18:07:50;;;;;;;;;;;4.10;99.90;;;;;;5071565;28;21073;-80
2022/01/19 18:10:17;;;;;;;;;;;4.10;99.90;;;;;;4972515;28;19936;-82
2022/01/19 18:12:44;;;;;;;;;;;4.10;99.90;;;;;;4776837;29;19947;-82
2022/01/19 18:15:13;;;;;;;;;;;4.10;99.90;;;;;;4571627;30;19939;-90
2022/01/19 18:22:49;;;;;;;;;;;4.00;99.90;;;;;;5158566;27;19941;-85
2022/01/19 18:25:16;;;;;;;;;;;4.00;99.90;;;;;;5102934;27;19923;-86
2022/01/19 18:27:51;;;;;;;;;;;4.00;99.90;;;;;;5095940;28;19932;-87
2022/01/19 18:30:18;;;;;;;;;;;4.00;99.90;;;;;;5064418;28;19932;-84
2022/01/19 18:32:45;;;;;;;;;;;4.00;99.90;;;;;;4998029;28;19927;-83
2022/01/19 18:35:13;;;;;;;;;;;4.00;99.90;;;;;;4876674;29;19929;-86
2022/01/19 18:37:41;;;;;;;;;;;4.00;99.90;;;;;;4650660;29;19938;-91
2022/01/19 18:44:37;;;;;;;;;;;4.00;99.90;;;;;;5176360;27;19927;-90
2022/01/19 18:47:04;;;;;;;;;;;4.00;99.90;;;;;;5138360;27;19931;-90
2022/01/19 18:49:31;;;;;;;;;;;4.00;99.90;;;;;;5121124;27;19923;-84
2022/01/19 18:51:58;;;;;;;;;;;4.00;99.90;;;;;;5105704;28;19931;-82
2022/01/19 18:54:25;;;;;;;;;;;4.10;99.90;;;;;;5015692;28;19933;-86
2022/01/19 18:56:52;;;;;;;;;;;4.10;99.90;;;;;;4870444;28;19930;-89
2022/01/19 18:59:19;;;;;;;;;;;4.00;99.90;;;;;;4686746;30;19932;-86
2022/01/19 19:06:55;;;;;;;;;;;4.00;99.90;;;;;;5180670;27;19926;-89
2022/01/19 19:09:23;;;;;;;;;;;4.10;99.90;;;;;;5146554;27;19923;-86
2022/01/19 19:12:02;;;;;;;;;;;4.10;99.90;;;;;;5135361;27;19935;-84
2022/01/19 19:14:29;;;;;;;;;;;4.00;99.90;;;;;;5067358;28;19925;-86
2022/01/19 19:16:56;;;;;;;;;;;4.00;99.90;;;;;;4967419;28;19934;-91
2022/01/19 19:19:27;;;;;;;;;;;4.00;99.90;;;;;;4788906;29;19938;-87
2022/01/19 19:21:54;;;;;;;;;;;4.00;99.90;;;;;;4607946;30;19943;-85
2022/01/19 19:29:27;;;;;;;;;;;4.00;99.90;;;;;;5189532;27;19913;-82
2022/01/19 19:31:54;;;;;;;;;;;4.00;99.90;;;;;;5130271;27;19912;-86
2022/01/19 19:34:21;;;;;;;;;;;4.00;99.90;;;;;;5117942;27;19924;-82
2022/01/19 19:36:48;;;;;;;;;;;4.00;99.90;;;;;;5128401;27;19930;-87
2022/01/19 19:39:15;;;;;;;;;;;4.00;99.90;;;;;;5047212;28;19938;-88
2022/01/19 19:41:42;;;;;;;;;;;4.00;99.90;;;;;;4883878;29;19930;-87
2022/01/19 19:44:08;;;;;;;;;;;4.00;99.90;;;;;;4675921;30;19933;-83
2022/01/19 19:49:23;;;;;;;;;;;3.90;99.90;;;;;;5156315;27;19926;-83
2022/01/19 19:51:50;;;;;;;;;;;3.90;99.90;;;;;;5081942;28;19924;-83
2022/01/19 19:54:17;;;;;;;;;;;3.90;99.90;;;;;;5065316;28;19924;-83
2022/01/19 19:56:44;;;;;;;;;;;3.90;99.90;;;;;;5044863;28;19929;-87